sensor_id;sensor_type;location;lat;lon;timestamp;pressure;altitude;pressure_sealevel;temperature;humidity
21566;BME280;10943;48.738;9.320;2022-11-15T00:00:48;98646.03;;;10.63;65.65
21566;BME280;10943;48.738;9.320;2022-11-15T00:03:34;98642.75;;;10.66;65.31
21566;BME280;10943;48.738;9.320;2022-11-15T00:06:20;98649.31;;;10.60;65.41
21566;BME280;10943;48.738;9.320;2022-11-15T00:09:05;98651.34;;;10.65;64.96
21566;BME280;10943;48.738;9.320;2022-11-15T00:11:51;98649.03;;;10.73;64.51
21566;BME280;10943;48.738;9.320;2022-11-15T00:14:37;98653.75;;;10.61;65.52
21566;BME280;10943;48.738;9.320;2022-11-15T00:17:23;98661.44;;;10.71;65.82
21566;BME280;10943;48.738;9.320;2022-11-15T00:20:09;98656.06;;;10.64;66.05
21566;BME280;10943;48.738;9.320;2022-11-15T00:22:56;98666.31;;;10.52;66.37
21566;BME280;10943;48.738;9.320;2022-11-15T00:25:44;98653.19;;;10.59;66.16
21566;BME280;10943;48.738;9.320;2022-11-15T00:28:31;98650.25;;;10.66;65.61
21566;BME280;10943;48.738;9.320;2022-11-15T00:31:16;98654.72;;;10.67;65.45
21566;BME280;10943;48.738;9.320;2022-11-15T00:34:03;98648.31;;;10.66;65.29
21566;BME280;10943;48.738;9.320;2022-11-15T00:36:48;98646.28;;;10.62;65.27
21566;BME280;10943;48.738;9.320;2022-11-15T00:39:35;98638.81;;;10.62;65.36
21566;BME280;10943;48.738;9.320;2022-11-15T00:42:20;98646.16;;;10.68;64.57
21566;BME280;10943;48.738;9.320;2022-11-15T00:45:07;98633.50;;;10.61;64.27
21566;BME280;10943;48.738;9.320;2022-11-15T00:47:53;98634.34;;;10.61;64.50
21566;BME280;10943;48.738;9.320;2022-11-15T00:50:41;98633.25;;;10.62;64.55
21566;BME280;10943;48.738;9.320;2022-11-15T00:53:28;98627.38;;;10.59;62.89
21566;BME280;10943;48.738;9.320;2022-11-15T00:56:14;98625.97;;;10.44;64.50
21566;BME280;10943;48.738;9.320;2022-11-15T00:59:00;98622.66;;;10.06;65.49
21566;BME280;10943;48.738;9.320;2022-11-15T01:01:45;98620.31;;;10.39;65.44
21566;BME280;10943;48.738;9.320;2022-11-15T01:04:31;98618.16;;;10.41;64.93
21566;BME280;10943;48.738;9.320;2022-11-15T01:07:17;98624.47;;;10.13;65.54
21566;BME280;10943;48.738;9.320;2022-11-15T01:10:05;98620.28;;;9.98;66.23
21566;BME280;10943;48.738;9.320;2022-11-15T01:12:52;98614.25;;;9.89;66.03
21566;BME280;10943;48.738;9.320;2022-11-15T01:15:41;98615.38;;;9.65;66.60
21566;BME280;10943;48.738;9.320;2022-11-15T01:18:27;98613.69;;;9.40;67.17
21566;BME280;10943;48.738;9.320;2022-11-15T01:21:18;98611.41;;;9.25;68.29
21566;BME280;10943;48.738;9.320;2022-11-15T01:24:07;98609.19;;;9.03;69.61
21566;BME280;10943;48.738;9.320;2022-11-15T01:26:53;98607.88;;;9.06;68.87
21566;BME280;10943;48.738;9.320;2022-11-15T01:29:39;98607.19;;;9.22;68.33
21566;BME280;10943;48.738;9.320;2022-11-15T01:32:25;98598.16;;;9.27;68.07
21566;BME280;10943;48.738;9.320;2022-11-15T01:35:11;98596.94;;;9.23;67.54
21566;BME280;10943;48.738;9.320;2022-11-15T01:37:56;98596.00;;;9.29;67.40
21566;BME280;10943;48.738;9.320;2022-11-15T01:40:47;98591.41;;;9.23;67.63
21566;BME280;10943;48.738;9.320;2022-11-15T01:43:36;98595.25;;;9.22;67.54
21566;BME280;10943;48.738;9.320;2022-11-15T01:46:27;98591.78;;;9.15;66.95
21566;BME280;10943;48.738;9.320;2022-11-15T01:49:20;98592.72;;;9.08;67.71
21566;BME280;10943;48.738;9.320;2022-11-15T01:52:13;98596.56;;;9.19;67.82
21566;BME280;10943;48.738;9.320;2022-11-15T01:55:14;98592.81;;;8.90;67.73
21566;BME280;10943;48.738;9.320;2022-11-15T01:58:06;98589.03;;;8.72;68.80
21566;BME280;10943;48.738;9.320;2022-11-15T02:00:52;98588.34;;;8.77;68.93
21566;BME280;10943;48.738;9.320;2022-11-15T02:03:50;98586.53;;;8.83;67.70
21566;BME280;10943;48.738;9.320;2022-11-15T02:06:40;98579.81;;;8.79;67.48
21566;BME280;10943;48.738;9.320;2022-11-15T02:09:26;98584.47;;;8.78;67.82
21566;BME280;10943;48.738;9.320;2022-11-15T02:12:16;98583.00;;;8.64;67.83
21566;BME280;10943;48.738;9.320;2022-11-15T02:15:07;98570.38;;;8.68;68.25
21566;BME280;10943;48.738;9.320;2022-11-15T02:29:48;98555.72;;;8.67;68.50
21566;BME280;10943;48.738;9.320;2022-11-15T02:39:02;98564.75;;;8.44;68.89
21566;BME280;10943;48.738;9.320;2022-11-15T02:42:11;98553.47;;;8.15;69.53
21566;BME280;10943;48.738;9.320;2022-11-15T02:45:36;98551.81;;;8.26;69.08
21566;BME280;10943;48.738;9.320;2022-11-15T02:48:26;98546.78;;;8.23;69.00
21566;BME280;10943;48.738;9.320;2022-11-15T02:51:13;98553.75;;;8.25;68.32
21566;BME280;10943;48.738;9.320;2022-11-15T02:53:59;98542.66;;;8.44;69.34
21566;BME280;10943;48.738;9.320;2022-11-15T02:56:45;98544.31;;;8.64;68.59
21566;BME280;10943;48.738;9.320;2022-11-15T03:03:26;98533.34;;;8.57;68.67
21566;BME280;10943;48.738;9.320;2022-11-15T03:07:01;98532.28;;;8.58;68.51
21566;BME280;10943;48.738;9.320;2022-11-15T03:10:12;98531.56;;;8.63;68.71
21566;BME280;10943;48.738;9.320;2022-11-15T03:14:00;98538.59;;;8.89;67.75
21566;BME280;10943;48.738;9.320;2022-11-15T03:17:07;98533.91;;;9.01;66.40
21566;BME280;10943;48.738;9.320;2022-11-15T03:20:04;98539.19;;;8.91;66.84
21566;BME280;10943;48.738;9.320;2022-11-15T03:22:55;98537.97;;;8.87;66.48
21566;BME280;10943;48.738;9.320;2022-11-15T03:25:48;98531.81;;;8.73;67.83
21566;BME280;10943;48.738;9.320;2022-11-15T03:28:42;98518.75;;;9.04;66.77
21566;BME280;10943;48.738;9.320;2022-11-15T03:31:39;98525.50;;;8.96;66.56
21566;BME280;10943;48.738;9.320;2022-11-15T03:34:49;98513.84;;;8.82;66.67
21566;BME280;10943;48.738;9.320;2022-11-15T03:40:59;98517.97;;;8.61;68.17
21566;BME280;10943;48.738;9.320;2022-11-15T03:43:57;98516.06;;;8.50;68.23
21566;BME280;10943;48.738;9.320;2022-11-15T03:47:03;98511.84;;;8.29;68.86
21566;BME280;10943;48.738;9.320;2022-11-15T03:50:05;98506.97;;;8.42;68.94
21566;BME280;10943;48.738;9.320;2022-11-15T03:52:55;98496.47;;;8.51;68.04
21566;BME280;10943;48.738;9.320;2022-11-15T03:55:42;98499.72;;;8.60;67.66
21566;BME280;10943;48.738;9.320;2022-11-15T03:58:29;98504.09;;;8.37;69.12
21566;BME280;10943;48.738;9.320;2022-11-15T04:01:15;98499.13;;;8.70;68.00
21566;BME280;10943;48.738;9.320;2022-11-15T04:04:02;98494.34;;;8.77;67.75
21566;BME280;10943;48.738;9.320;2022-11-15T04:06:50;98487.50;;;8.80;67.78
21566;BME280;10943;48.738;9.320;2022-11-15T04:09:37;98495.28;;;8.59;68.08
21566;BME280;10943;48.738;9.320;2022-11-15T04:12:45;98492.28;;;8.30;69.10
21566;BME280;10943;48.738;9.320;2022-11-15T04:15:35;98490.66;;;8.41;68.43
21566;BME280;10943;48.738;9.320;2022-11-15T04:18:21;98487.72;;;8.24;68.97
21566;BME280;10943;48.738;9.320;2022-11-15T04:21:08;98486.34;;;8.15;69.03
21566;BME280;10943;48.738;9.320;2022-11-15T04:24:13;98481.50;;;8.40;68.27
21566;BME280;10943;48.738;9.320;2022-11-15T04:27:00;98486.56;;;8.43;67.79
21566;BME280;10943;48.738;9.320;2022-11-15T04:29:46;98487.94;;;8.22;68.04
21566;BME280;10943;48.738;9.320;2022-11-15T04:32:39;98486.41;;;8.26;68.64
21566;BME280;10943;48.738;9.320;2022-11-15T04:35:55;98489.56;;;8.12;68.58
21566;BME280;10943;48.738;9.320;2022-11-15T04:39:01;98480.28;;;7.75;70.52
21566;BME280;10943;48.738;9.320;2022-11-15T04:41:47;98480.78;;;7.72;70.53
21566;BME280;10943;48.738;9.320;2022-11-15T04:44:37;98474.78;;;7.75;70.21
21566;BME280;10943;48.738;9.320;2022-11-15T04:47:23;98467.84;;;7.85;69.82
21566;BME280;10943;48.738;9.320;2022-11-15T04:50:09;98469.53;;;8.04;68.65
21566;BME280;10943;48.738;9.320;2022-11-15T04:53:03;98477.94;;;8.09;68.39
21566;BME280;10943;48.738;9.320;2022-11-15T04:55:51;98476.25;;;8.08;69.19
21566;BME280;10943;48.738;9.320;2022-11-15T04:58:37;98471.28;;;8.29;68.41
21566;BME280;10943;48.738;9.320;2022-11-15T05:01:23;98467.66;;;8.59;67.29
21566;BME280;10943;48.738;9.320;2022-11-15T05:04:11;98462.47;;;8.51;67.52
21566;BME280;10943;48.738;9.320;2022-11-15T05:07:06;98460.25;;;8.29;67.35
21566;BME280;10943;48.738;9.320;2022-11-15T05:09:52;98461.63;;;8.20;67.81
21566;BME280;10943;48.738;9.320;2022-11-15T05:12:39;98450.78;;;8.06;67.41
21566;BME280;10943;48.738;9.320;2022-11-15T05:15:25;98454.97;;;7.97;68.63
21566;BME280;10943;48.738;9.320;2022-11-15T05:18:11;98464.06;;;7.98;68.01
21566;BME280;10943;48.738;9.320;2022-11-15T05:21:05;98459.59;;;8.15;68.55
21566;BME280;10943;48.738;9.320;2022-11-15T05:23:58;98448.44;;;8.22;67.49
21566;BME280;10943;48.738;9.320;2022-11-15T05:26:52;98455.47;;;7.75;69.68
21566;BME280;10943;48.738;9.320;2022-11-15T05:29:38;98458.34;;;7.99;69.13
21566;BME280;10943;48.738;9.320;2022-11-15T05:32:26;98466.91;;;8.09;68.08
21566;BME280;10943;48.738;9.320;2022-11-15T05:35:34;98465.59;;;8.12;67.86
21566;BME280;10943;48.738;9.320;2022-11-15T05:38:25;98462.72;;;8.19;67.19
21566;BME280;10943;48.738;9.320;2022-11-15T05:41:12;98458.13;;;8.13;67.54
21566;BME280;10943;48.738;9.320;2022-11-15T05:44:02;98468.13;;;8.14;67.30
21566;BME280;10943;48.738;9.320;2022-11-15T05:46:58;98447.44;;;8.04;67.89
21566;BME280;10943;48.738;9.320;2022-11-15T05:49:49;98442.38;;;8.01;67.84
21566;BME280;10943;48.738;9.320;2022-11-15T05:52:37;98442.41;;;8.13;67.42
21566;BME280;10943;48.738;9.320;2022-11-15T05:55:25;98444.19;;;8.07;67.66
21566;BME280;10943;48.738;9.320;2022-11-15T05:58:12;98439.59;;;8.01;67.84
21566;BME280;10943;48.738;9.320;2022-11-15T06:00:58;98445.25;;;8.06;67.29
21566;BME280;10943;48.738;9.320;2022-11-15T06:03:45;98432.38;;;8.00;67.53
21566;BME280;10943;48.738;9.320;2022-11-15T06:06:35;98447.06;;;8.01;66.72
21566;BME280;10943;48.738;9.320;2022-11-15T06:09:21;98443.84;;;8.16;67.05
21566;BME280;10943;48.738;9.320;2022-11-15T06:12:09;98443.78;;;7.92;67.02
21566;BME280;10943;48.738;9.320;2022-11-15T06:14:55;98441.50;;;7.70;68.43
21566;BME280;10943;48.738;9.320;2022-11-15T06:17:44;98440.28;;;7.36;69.38
21566;BME280;10943;48.738;9.320;2022-11-15T06:20:30;98444.09;;;7.35;69.12
21566;BME280;10943;48.738;9.320;2022-11-15T06:23:17;98450.84;;;7.20;69.20
21566;BME280;10943;48.738;9.320;2022-11-15T06:26:04;98449.81;;;7.52;69.31
21566;BME280;10943;48.738;9.320;2022-11-15T06:29:04;98455.56;;;7.69;68.02
21566;BME280;10943;48.738;9.320;2022-11-15T06:31:52;98455.22;;;7.77;68.36
21566;BME280;10943;48.738;9.320;2022-11-15T06:34:39;98466.28;;;7.58;69.33
21566;BME280;10943;48.738;9.320;2022-11-15T06:37:35;98458.34;;;7.99;67.92
21566;BME280;10943;48.738;9.320;2022-11-15T06:40:49;98457.09;;;8.25;66.98
21566;BME280;10943;48.738;9.320;2022-11-15T06:43:37;98454.88;;;8.16;67.09
21566;BME280;10943;48.738;9.320;2022-11-15T06:46:23;98457.72;;;7.97;68.05
21566;BME280;10943;48.738;9.320;2022-11-15T06:49:10;98446.44;;;7.99;67.80
21566;BME280;10943;48.738;9.320;2022-11-15T06:51:57;98451.44;;;7.90;67.70
21566;BME280;10943;48.738;9.320;2022-11-15T06:54:43;98456.75;;;7.73;68.51
21566;BME280;10943;48.738;9.320;2022-11-15T06:57:29;98453.50;;;7.95;68.26
21566;BME280;10943;48.738;9.320;2022-11-15T07:00:19;98456.13;;;7.89;68.44
21566;BME280;10943;48.738;9.320;2022-11-15T07:03:06;98457.34;;;7.93;68.65
21566;BME280;10943;48.738;9.320;2022-11-15T07:05:55;98462.59;;;8.14;68.17
21566;BME280;10943;48.738;9.320;2022-11-15T07:08:52;98462.66;;;8.37;67.30
21566;BME280;10943;48.738;9.320;2022-11-15T07:11:41;98470.09;;;8.37;67.52
21566;BME280;10943;48.738;9.320;2022-11-15T07:14:27;98456.63;;;8.40;67.40
21566;BME280;10943;48.738;9.320;2022-11-15T07:17:13;98457.78;;;8.51;67.26
21566;BME280;10943;48.738;9.320;2022-11-15T07:19:59;98458.06;;;8.62;67.37
21566;BME280;10943;48.738;9.320;2022-11-15T07:22:50;98465.03;;;8.88;66.58
21566;BME280;10943;48.738;9.320;2022-11-15T07:25:37;98469.13;;;9.09;65.98
21566;BME280;10943;48.738;9.320;2022-11-15T07:28:49;98469.47;;;9.24;64.97
21566;BME280;10943;48.738;9.320;2022-11-15T07:31:37;98470.44;;;9.06;65.46
21566;BME280;10943;48.738;9.320;2022-11-15T07:34:24;98466.09;;;9.11;65.20
21566;BME280;10943;48.738;9.320;2022-11-15T07:37:10;98454.47;;;9.61;64.26
21566;BME280;10943;48.738;9.320;2022-11-15T07:39:57;98449.22;;;9.48;64.52
21566;BME280;10943;48.738;9.320;2022-11-15T07:42:44;98445.59;;;9.59;64.40
21566;BME280;10943;48.738;9.320;2022-11-15T07:45:43;98454.69;;;9.71;64.84
21566;BME280;10943;48.738;9.320;2022-11-15T07:48:30;98450.94;;;10.06;64.36
21566;BME280;10943;48.738;9.320;2022-11-15T07:51:29;98446.47;;;10.34;64.11
21566;BME280;10943;48.738;9.320;2022-11-15T07:54:15;98432.56;;;10.80;62.13
21566;BME280;10943;48.738;9.320;2022-11-15T07:57:07;98434.53;;;11.19;61.55
21566;BME280;10943;48.738;9.320;2022-11-15T08:00:05;98427.56;;;11.83;60.67
21566;BME280;10943;48.738;9.320;2022-11-15T08:03:12;98431.22;;;12.05;59.68
21566;BME280;10943;48.738;9.320;2022-11-15T08:06:11;98433.13;;;12.32;61.00
21566;BME280;10943;48.738;9.320;2022-11-15T08:09:00;98434.31;;;13.07;57.81
21566;BME280;10943;48.738;9.320;2022-11-15T08:11:48;98426.38;;;12.88;57.46
21566;BME280;10943;48.738;9.320;2022-11-15T08:14:37;98422.16;;;13.23;56.64
21566;BME280;10943;48.738;9.320;2022-11-15T08:17:29;98428.59;;;13.29;56.07
21566;BME280;10943;48.738;9.320;2022-11-15T08:20:21;98421.81;;;13.57;56.88
21566;BME280;10943;48.738;9.320;2022-11-15T08:23:12;98419.13;;;13.83;55.12
21566;BME280;10943;48.738;9.320;2022-11-15T08:26:04;98423.66;;;14.15;56.38
21566;BME280;10943;48.738;9.320;2022-11-15T08:28:53;98414.53;;;14.45;55.17
21566;BME280;10943;48.738;9.320;2022-11-15T08:31:40;98406.16;;;15.02;51.87
21566;BME280;10943;48.738;9.320;2022-11-15T08:34:26;98400.00;;;15.26;53.65
21566;BME280;10943;48.738;9.320;2022-11-15T08:37:12;98402.97;;;15.50;52.95
21566;BME280;10943;48.738;9.320;2022-11-15T08:39:58;98408.53;;;15.60;53.28
21566;BME280;10943;48.738;9.320;2022-11-15T08:42:47;98399.59;;;15.63;52.09
21566;BME280;10943;48.738;9.320;2022-11-15T08:45:37;98396.31;;;16.06;50.70
21566;BME280;10943;48.738;9.320;2022-11-15T08:48:23;98398.72;;;17.27;48.88
21566;BME280;10943;48.738;9.320;2022-11-15T08:51:10;98390.25;;;19.09;43.97
21566;BME280;10943;48.738;9.320;2022-11-15T08:53:57;98398.00;;;20.51;43.17
21566;BME280;10943;48.738;9.320;2022-11-15T08:56:43;98397.91;;;22.14;38.23
21566;BME280;10943;48.738;9.320;2022-11-15T08:59:32;98385.09;;;23.69;36.47
21566;BME280;10943;48.738;9.320;2022-11-15T09:02:29;98393.25;;;25.98;31.73
21566;BME280;10943;48.738;9.320;2022-11-15T09:05:20;98385.03;;;27.43;27.99
21566;BME280;10943;48.738;9.320;2022-11-15T09:08:41;98386.81;;;27.20;28.67
21566;BME280;10943;48.738;9.320;2022-11-15T09:12:06;98380.63;;;28.10;28.05
21566;BME280;10943;48.738;9.320;2022-11-15T09:14:56;98380.25;;;29.25;25.34
21566;BME280;10943;48.738;9.320;2022-11-15T09:18:13;98384.84;;;30.23;24.40
21566;BME280;10943;48.738;9.320;2022-11-15T09:21:46;98381.22;;;30.53;24.13
21566;BME280;10943;48.738;9.320;2022-11-15T09:24:44;98381.34;;;29.17;25.01
21566;BME280;10943;48.738;9.320;2022-11-15T09:27:45;98377.56;;;26.54;28.38
21566;BME280;10943;48.738;9.320;2022-11-15T09:31:26;98382.16;;;25.34;29.32
21566;BME280;10943;48.738;9.320;2022-11-15T09:34:37;98374.59;;;24.50;29.92
21566;BME280;10943;48.738;9.320;2022-11-15T09:37:44;98371.31;;;24.48;30.45
21566;BME280;10943;48.738;9.320;2022-11-15T09:41:18;98376.41;;;26.42;27.60
21566;BME280;10943;48.738;9.320;2022-11-15T09:44:38;98371.88;;;28.19;25.10
21566;BME280;10943;48.738;9.320;2022-11-15T09:48:55;98368.19;;;29.32;24.87
21566;BME280;10943;48.738;9.320;2022-11-15T09:52:11;98371.09;;;30.89;22.77
21566;BME280;10943;48.738;9.320;2022-11-15T09:54:56;98362.75;;;31.07;23.03
21566;BME280;10943;48.738;9.320;2022-11-15T09:58:03;98357.63;;;31.65;21.70
21566;BME280;10943;48.738;9.320;2022-11-15T10:01:13;98350.63;;;31.63;21.60
21566;BME280;10943;48.738;9.320;2022-11-15T10:03:48;98345.91;;;31.43;21.81
21566;BME280;10943;48.738;9.320;2022-11-15T10:07:06;98341.44;;;29.21;23.55
21566;BME280;10943;48.738;9.320;2022-11-15T10:10:42;98327.84;;;28.71;24.36
21566;BME280;10943;48.738;9.320;2022-11-15T10:14:20;98332.91;;;27.27;27.32
21566;BME280;10943;48.738;9.320;2022-11-15T10:23:30;98323.91;;;25.37;28.92
21566;BME280;10943;48.738;9.320;2022-11-15T10:27:06;98317.69;;;26.34;28.18
21566;BME280;10943;48.738;9.320;2022-11-15T10:30:57;98307.59;;;26.77;26.37
21566;BME280;10943;48.738;9.320;2022-11-15T10:33:52;98313.00;;;25.14;29.45
21566;BME280;10943;48.738;9.320;2022-11-15T10:37:02;98302.50;;;23.46;31.16
21566;BME280;10943;48.738;9.320;2022-11-15T10:39:32;98297.97;;;23.53;31.74
21566;BME280;10943;48.738;9.320;2022-11-15T10:42:28;98297.91;;;23.23;32.87
21566;BME280;10943;48.738;9.320;2022-11-15T10:45:01;98280.31;;;23.56;32.81
21566;BME280;10943;48.738;9.320;2022-11-15T10:47:35;98284.13;;;23.52;32.65
21566;BME280;10943;48.738;9.320;2022-11-15T10:50:31;98282.28;;;23.56;32.29
21566;BME280;10943;48.738;9.320;2022-11-15T10:56:03;98275.03;;;22.99;33.82
21566;BME280;10943;48.738;9.320;2022-11-15T10:58:41;98268.84;;;23.14;33.37
21566;BME280;10943;48.738;9.320;2022-11-15T11:01:31;98267.19;;;23.13;33.03
21566;BME280;10943;48.738;9.320;2022-11-15T11:04:15;98260.06;;;22.07;35.05
21566;BME280;10943;48.738;9.320;2022-11-15T11:06:53;98265.19;;;22.31;34.63
21566;BME280;10943;48.738;9.320;2022-11-15T11:11:57;98262.53;;;22.35;35.00
21566;BME280;10943;48.738;9.320;2022-11-15T11:14:51;98262.72;;;22.03;35.22
21566;BME280;10943;48.738;9.320;2022-11-15T11:20:43;98263.50;;;21.69;35.67
21566;BME280;10943;48.738;9.320;2022-11-15T11:23:59;98254.16;;;21.42;36.67
21566;BME280;10943;48.738;9.320;2022-11-15T11:42:06;98239.59;;;21.00;37.76
21566;BME280;10943;48.738;9.320;2022-11-15T11:45:40;98238.69;;;20.82;38.88
21566;BME280;10943;48.738;9.320;2022-11-15T11:48:44;98233.31;;;21.12;38.04
21566;BME280;10943;48.738;9.320;2022-11-15T11:51:53;98215.09;;;21.09;37.75
21566;BME280;10943;48.738;9.320;2022-11-15T11:58:34;98207.03;;;20.76;38.81
21566;BME280;10943;48.738;9.320;2022-11-15T12:01:36;98197.00;;;21.01;38.67
21566;BME280;10943;48.738;9.320;2022-11-15T12:04:20;98198.91;;;21.32;38.82
21566;BME280;10943;48.738;9.320;2022-11-15T12:10:01;98189.47;;;22.16;36.63
21566;BME280;10943;48.738;9.320;2022-11-15T12:13:06;98198.41;;;22.35;35.76
21566;BME280;10943;48.738;9.320;2022-11-15T12:16:19;98190.47;;;22.37;36.16
21566;BME280;10943;48.738;9.320;2022-11-15T12:18:53;98178.84;;;22.39;35.60
21566;BME280;10943;48.738;9.320;2022-11-15T12:21:42;98179.03;;;22.07;37.57
21566;BME280;10943;48.738;9.320;2022-11-15T12:24:43;98173.09;;;21.83;36.57
21566;BME280;10943;48.738;9.320;2022-11-15T12:27:36;98174.22;;;22.08;36.03
21566;BME280;10943;48.738;9.320;2022-11-15T12:30:19;98165.09;;;21.93;36.29
21566;BME280;10943;48.738;9.320;2022-11-15T12:32:57;98165.78;;;21.55;37.46
21566;BME280;10943;48.738;9.320;2022-11-15T12:35:42;98170.97;;;20.96;40.71
21566;BME280;10943;48.738;9.320;2022-11-15T12:38:12;98164.78;;;20.76;39.64
21566;BME280;10943;48.738;9.320;2022-11-15T12:41:30;98179.75;;;20.63;39.45
21566;BME280;10943;48.738;9.320;2022-11-15T12:45:01;98155.00;;;20.82;38.78
21566;BME280;10943;48.738;9.320;2022-11-15T12:47:38;98164.44;;;20.77;38.99
21566;BME280;10943;48.738;9.320;2022-11-15T12:50:53;98167.16;;;20.28;40.31
21566;BME280;10943;48.738;9.320;2022-11-15T12:53:34;98165.69;;;20.31;40.46
21566;BME280;10943;48.738;9.320;2022-11-15T12:56:21;98158.72;;;20.28;40.69
21566;BME280;10943;48.738;9.320;2022-11-15T13:02:39;98158.22;;;20.04;40.87
21566;BME280;10943;48.738;9.320;2022-11-15T13:08:41;98146.44;;;19.93;41.62
21566;BME280;10943;48.738;9.320;2022-11-15T13:11:47;98145.16;;;19.62;41.84
21566;BME280;10943;48.738;9.320;2022-11-15T13:15:00;98144.53;;;19.66;42.01
21566;BME280;10943;48.738;9.320;2022-11-15T13:20:25;98125.84;;;19.24;43.17
21566;BME280;10943;48.738;9.320;2022-11-15T13:23:20;98129.81;;;19.09;44.32
21566;BME280;10943;48.738;9.320;2022-11-15T13:26:28;98118.78;;;19.13;44.33
21566;BME280;10943;48.738;9.320;2022-11-15T13:29:23;98115.38;;;19.02;44.53
21566;BME280;10943;48.738;9.320;2022-11-15T13:31:50;98113.56;;;19.20;44.23
21566;BME280;10943;48.738;9.320;2022-11-15T13:34:31;98105.75;;;19.17;44.45
21566;BME280;10943;48.738;9.320;2022-11-15T13:37:31;98105.63;;;19.22;44.40
21566;BME280;10943;48.738;9.320;2022-11-15T13:40:28;98101.97;;;19.58;44.34
21566;BME280;10943;48.738;9.320;2022-11-15T13:42:59;98097.09;;;19.73;43.72
21566;BME280;10943;48.738;9.320;2022-11-15T13:45:27;98090.72;;;19.81;43.60
21566;BME280;10943;48.738;9.320;2022-11-15T13:47:57;98090.19;;;20.02;43.17
21566;BME280;10943;48.738;9.320;2022-11-15T13:50:33;98087.84;;;19.95;43.03
21566;BME280;10943;48.738;9.320;2022-11-15T13:53:04;98080.53;;;19.94;42.71
21566;BME280;10943;48.738;9.320;2022-11-15T13:55:37;98079.47;;;19.58;43.05
21566;BME280;10943;48.738;9.320;2022-11-15T13:58:17;98078.25;;;19.51;42.95
21566;BME280;10943;48.738;9.320;2022-11-15T14:01:03;98074.06;;;19.62;42.44
21566;BME280;10943;48.738;9.320;2022-11-15T14:03:48;98068.75;;;19.83;41.62
21566;BME280;10943;48.738;9.320;2022-11-15T14:06:30;98058.94;;;19.81;41.49
21566;BME280;10943;48.738;9.320;2022-11-15T14:09:02;98055.41;;;19.89;41.47
21566;BME280;10943;48.738;9.320;2022-11-15T14:11:37;98047.91;;;19.84;41.70
21566;BME280;10943;48.738;9.320;2022-11-15T14:14:24;98048.94;;;19.66;42.56
21566;BME280;10943;48.738;9.320;2022-11-15T14:17:00;98052.63;;;19.07;45.25
21566;BME280;10943;48.738;9.320;2022-11-15T14:19:37;98041.94;;;18.95;47.43
21566;BME280;10943;48.738;9.320;2022-11-15T14:22:24;98037.50;;;18.66;46.15
21566;BME280;10943;48.738;9.320;2022-11-15T14:25:18;98027.91;;;18.81;45.42
21566;BME280;10943;48.738;9.320;2022-11-15T14:30:55;98017.72;;;18.35;48.64
21566;BME280;10943;48.738;9.320;2022-11-15T14:33:33;98006.47;;;18.07;50.08
21566;BME280;10943;48.738;9.320;2022-11-15T14:36:18;98000.91;;;16.94;55.03
21566;BME280;10943;48.738;9.320;2022-11-15T14:38:47;97999.16;;;16.98;56.75
21566;BME280;10943;48.738;9.320;2022-11-15T14:41:22;98008.75;;;17.11;56.95
21566;BME280;10943;48.738;9.320;2022-11-15T14:43:55;98011.47;;;17.16;57.78
21566;BME280;10943;48.738;9.320;2022-11-15T14:46:24;97994.66;;;17.16;56.66
21566;BME280;10943;48.738;9.320;2022-11-15T14:48:51;97999.03;;;17.22;56.83
21566;BME280;10943;48.738;9.320;2022-11-15T14:51:19;97993.97;;;17.24;57.56
21566;BME280;10943;48.738;9.320;2022-11-15T14:53:59;97991.78;;;17.21;56.83
21566;BME280;10943;48.738;9.320;2022-11-15T14:57:14;97991.34;;;17.14;56.19
21566;BME280;10943;48.738;9.320;2022-11-15T15:01:24;97982.56;;;17.02;56.59
21566;BME280;10943;48.738;9.320;2022-11-15T15:03:56;97976.47;;;16.99;56.07
21566;BME280;10943;48.738;9.320;2022-11-15T15:06:26;97970.97;;;17.08;55.57
21566;BME280;10943;48.738;9.320;2022-11-15T15:08:57;97973.75;;;16.94;56.17
21566;BME280;10943;48.738;9.320;2022-11-15T15:11:29;97978.78;;;16.73;57.23
21566;BME280;10943;48.738;9.320;2022-11-15T15:13:58;97975.16;;;16.73;58.68
21566;BME280;10943;48.738;9.320;2022-11-15T15:16:28;97963.75;;;16.69;59.55
21566;BME280;10943;48.738;9.320;2022-11-15T15:18:55;97965.63;;;16.74;57.78
21566;BME280;10943;48.738;9.320;2022-11-15T15:21:27;97963.81;;;17.02;56.07
21566;BME280;10943;48.738;9.320;2022-11-15T15:24:03;97951.38;;;17.08;55.83
21566;BME280;10943;48.738;9.320;2022-11-15T15:26:34;97959.47;;;17.10;54.98
21566;BME280;10943;48.738;9.320;2022-11-15T15:29:04;97947.03;;;17.02;54.87
21566;BME280;10943;48.738;9.320;2022-11-15T15:31:33;97952.41;;;16.98;54.71
21566;BME280;10943;48.738;9.320;2022-11-15T15:36:49;97931.81;;;16.89;55.84
21566;BME280;10943;48.738;9.320;2022-11-15T15:39:16;97942.34;;;16.59;58.07
21566;BME280;10943;48.738;9.320;2022-11-15T15:41:43;97930.94;;;16.37;59.95
21566;BME280;10943;48.738;9.320;2022-11-15T15:44:10;97923.59;;;16.22;58.60
21566;BME280;10943;48.738;9.320;2022-11-15T15:46:38;97932.06;;;16.36;58.18
21566;BME280;10943;48.738;9.320;2022-11-15T15:49:09;97922.31;;;16.33;58.36
21566;BME280;10943;48.738;9.320;2022-11-15T15:51:37;97922.38;;;16.09;60.27
21566;BME280;10943;48.738;9.320;2022-11-15T15:54:04;97919.25;;;15.91;61.37
21566;BME280;10943;48.738;9.320;2022-11-15T15:56:31;97921.16;;;15.96;60.10
21566;BME280;10943;48.738;9.320;2022-11-15T15:58:58;97912.13;;;15.75;61.46
21566;BME280;10943;48.738;9.320;2022-11-15T16:01:26;97909.78;;;15.87;60.63
21566;BME280;10943;48.738;9.320;2022-11-15T16:03:53;97898.16;;;15.75;61.23
21566;BME280;10943;48.738;9.320;2022-11-15T16:06:36;97891.19;;;15.53;62.76
21566;BME280;10943;48.738;9.320;2022-11-15T16:09:06;97897.22;;;15.60;62.50
21566;BME280;10943;48.738;9.320;2022-11-15T16:11:46;97895.56;;;15.59;63.01
21566;BME280;10943;48.738;9.320;2022-11-15T16:14:14;97895.69;;;15.25;64.40
21566;BME280;10943;48.738;9.320;2022-11-15T16:16:41;97895.09;;;15.52;63.66
21566;BME280;10943;48.738;9.320;2022-11-15T16:19:10;97892.25;;;15.57;63.19
21566;BME280;10943;48.738;9.320;2022-11-15T16:21:38;97888.53;;;15.62;62.29
21566;BME280;10943;48.738;9.320;2022-11-15T16:24:06;97881.69;;;15.30;63.37